CheckWX is a tool to help pilots better visualize weather data.  It is not intended as a substitute for an official pre-flight weather briefing.

20:39:07 UTC

KISM TAF
Kissimmee Gateway Airport
Orlando, Florida, USA
KISM 221752Z 2218/2318 30012G18KT P6SM SKC FM222100 27008KT P6SM SKC FM230300 30005KT P6SM SKC FM230900 34004KT P6SM FEW250 FM231400 05006KT P6SM SCT250

Mar-22@
18:00 UTC

Mar-22 @ 18:00 UTC

Mar-22@
21:00 UTC

Mar-22 @ 21:00 UTC

KISM 221752Z 2218/2318 30012G18KT P6SM SKC
Wind
  • 300° at 12 KTS
  • {Gusting to 18 KTS
Cloud Levels
  • Clear skies

Mar-22@
21:00 UTC

Mar-22 @ 21:00 UTC

Mar-23@
03:00 UTC

Mar-23 @ 03:00 UTC

FM222100 27008KT P6SM SKC

From

From Standard forecast or significant change

Wind
  • 270° at 8 KTS
Cloud Levels
  • Clear skies

Mar-23@
03:00 UTC

Mar-23 @ 03:00 UTC

Mar-23@
09:00 UTC

Mar-23 @ 09:00 UTC

FM230300 30005KT P6SM SKC

From

From Standard forecast or significant change

Wind
  • 300° at 5 KTS
Cloud Levels
  • Clear skies

Mar-23@
09:00 UTC

Mar-23 @ 09:00 UTC

Mar-23@
14:00 UTC

Mar-23 @ 14:00 UTC

FM230900 34004KT P6SM FEW250

From

From Standard forecast or significant change

Wind
  • 340° at 4 KTS
Cloud Levels
  • Few at 25,000' AGL

Mar-23@
14:00 UTC

Mar-23 @ 14:00 UTC

Mar-23@
18:00 UTC

Mar-23 @ 18:00 UTC

FM231400 05006KT P6SM SCT250

From

From Standard forecast or significant change

Wind
  • 050° at 6 KTS
Cloud Levels
  • Scattered at 25,000' AGL